Aviation Digital Data Service (ADDS)

Output produced by METARs form (0100 UTC 22 September 2017)
found at http://www.aviationweather.gov/adds/metars/
 
KCAE 212327Z 2200/2224 VRB04KT P6SM VCSH SCT060 
     FM220300 VRB03KT P6SM SCT100 
     TEMPO 2209/2211 5SM BR SKC 
     FM221300 VRB03KT P6SM SKC 
     FM221600 07005KT P6SM SCT050
       
KCAK 212324Z 2200/2224 00000KT P6SM FEW250 
     FM220900 00000KT 3SM BR FEW250 
     FM221300 VRB03KT P6SM FEW250
       
KCAR 212320Z 2200/2224 VRB03KT P6SM SKC
       
TAF AMD KCBM 212336Z 2123/2223 VRB06KT 9999 SCT045 QNH2993INS 
     TEMPO 2123/2201 04012G20KT 6000 -TSRA BKN040CB 
     BECMG 2200/2201 06006KT 9999 FEW050 SCT100 QNH2994INS 
     TEMPO 2208/2213 6000 BR 
     BECMG 2219/2220 07006KT 9999 VCTS SCT025CB QNH3000INS TX32/2123Z TN21/2211Z
       
KCDC 212340Z 2200/2224 20030G41KT P6SM VCSH SCT050 BKN090 
     FM220400 23013G20KT P6SM -SHRA SCT030 BKN060 
     FM220700 21011KT P6SM SCT050 BKN090
       
KCDR 212330Z 2200/2224 12012KT P6SM SKC 
     FM220700 36012KT P6SM SCT100 
     FM221800 05010KT P6SM BKN100
       
KCDS 212320Z 2200/2224 18012KT P6SM SCT110 
     FM220600 18011KT P6SM SCT110 WS020/19040KT 
     FM221200 17010KT P6SM FEW015 FEW250
       
KCEC 212343Z 2200/2224 21005KT P6SM VCSH BKN025 BKN100 
     TEMPO 2200/2203 SCT025 BKN100 
     FM220300 VRB03KT 6SM BR SCT025 BKN250 
     FM221000 VRB03KT 4SM BR SCT003 SCT250 
     TEMPO 2213/2216 2SM BR BKN003 
     FM221630 32008KT P6SM SCT015 
     FM222000 33012G20KT P6SM SKC
       
TAF AMD KCEF 211915Z 2119/2224 06010G15KT 9999 FEW030 QNH2997INS 
     TEMPO 2119/2122 02015G25KT 
     BECMG 2123/2124 02009KT 9999 FEW040 QNH2996INS 
     BECMG 2207/2208 01012KT 9999 BKN030 OVC050 QNH2997INS 
     BECMG 2212/2213 02012G18KT 9999 BKN020 OVC030 QNH2996INS 
     TEMPO 2215/2222 02015G25KT 
     BECMG 2222/2223 01009KT 9999 OVC020 QNH2997INS TX26/2119Z TN16/2211Z
       
KCGI 212330Z 2200/2224 15004KT P6SM SKC 
     TEMPO 2211/2214 3SM BR 
     FM221400 10005KT P6SM FEW035
       
KCHA 212323Z 2200/2224 VRB02KT P6SM FEW250 
     FM221400 04004KT P6SM SCT045
       
KCHO 212328Z 2200/2224 06004KT 6SM HZ SCT250 
     FM220800 00000KT 3SM BR FEW250 
     FM221200 00000KT 5SM BR FEW200 FEW250 
     FM221400 VRB03KT P6SM FEW060 FEW250
       
KCHS 212334Z 2200/2224 VRB03KT P6SM BKN200 
     FM220300 00000KT P6SM SCT200 
     FM220900 00000KT 6SM MIFG SKC 
     FM221700 16005KT P6SM SCT050
       
KCID 212321Z 2200/2224 16008KT P6SM FEW100 FEW250 
     FM221000 17008KT 6SM BR SCT250 
     FM221600 18014G20KT P6SM FEW250
       
KCKB 212339Z 2200/2224 00000KT P6SM SKC 
     FM220400 00000KT 5SM BR SKC 
     TEMPO 2205/2207 2SM BR 
     FM220800 00000KT 1/4SM FG OVC001 
     FM221300 00000KT 3SM BR BKN002 
     FM221400 36003KT P6SM FEW050
       
KCKV 212320Z 2200/2224 23003KT P6SM SKC 
     FM220800 00000KT 2SM BR SKC 
     FM221000 00000KT 3/4SM BR BKN003 
     FM221200 00000KT 2SM BR SKC 
     FM221300 07003KT P6SM SKC
       
KCLE 212324Z 2200/2306 VRB03KT P6SM FEW250 
     FM221700 35009KT P6SM FEW200 
     FM230000 03004KT P6SM FEW200
       
KCLL 212336Z 2200/2224 15011KT P6SM SKC 
     FM220200 15006KT P6SM BKN250 
     FM220900 15003KT 6SM BR SCT015 
     TEMPO 2211/2213 4SM BR BKN015 
     FM221500 15007KT P6SM BKN025 
     FM221900 14008KT P6SM VCSH BKN035
       
KCLM 212345Z 2200/2224 04005KT P6SM SCT200 
     FM220500 29004KT P6SM SCT070 SCT200 
     FM221200 24004KT P6SM SCT200 
     FM221800 06005KT P6SM SCT200
       
KCLT 212334Z 2200/2224 04004KT P6SM SCT250 
     FM221600 02005KT P6SM SCT045
       
KCMA 212340Z 2200/2224 27020KT P6SM SKC 
     FM220300 27009KT P6SM SKC 
     FM220600 VRB05KT P6SM SKC 
     FM220800 05005KT P6SM SKC 
     FM221800 25008KT P6SM SKC 
     FM222100 25012KT P6SM SKC
       
KCMH 212339Z 2200/2224 VRB03KT P6SM SKC 
     TEMPO 2209/2213 4SM BR
       
KCMI 212337Z 2200/2224 17006KT P6SM BKN250 
     FM220600 15007KT P6SM SCT250
       
KCMX 212327Z 2200/2224 10008KT P6SM FEW200 
     FM220200 11008KT 2SM BR SCT025 
     FM220600 12008KT 5SM BR VCTS BKN025CB 
     FM220900 15006KT 4SM BR VCSH BKN020 WS020/22030KT 
     FM221300 18006KT 4SM BR VCSH BKN035 
     FM221600 19008KT P6SM SCT040 
     FM222000 23004KT P6SM FEW120
       
KCNM 212320Z 2200/2224 18011KT P6SM FEW100 
     FM221600 17011G19KT P6SM BKN250
       
KCNU 212320Z 2200/2224 16017G24KT P6SM SKC 
     FM220100 16012KT P6SM SKC 
     FM221500 18015G21KT P6SM SCT050
       
KCNY 212332Z 2200/2224 21020G30KT P6SM SCT130 SCT180 
     FM220300 20022G33KT P6SM FEW130 SCT250 
     FM221900 21019G27KT P6SM FEW080 SCT200
       
KCOD 212338Z 2200/2224 34010KT P6SM -RA SCT015 BKN023 
     FM220400 35007KT P6SM -RA SCT012 OVC020 
     FM221400 34011G20KT P6SM -RA OVC035 AMD LTD TO CLD VIS AND WIND
       
KCOE 212329Z 2200/2224 00000KT P6SM VCSH SCT025 OVC060 
     TEMPO 2200/2202 -SHRA BKN026 
     FM220300 03006KT P6SM FEW070 BKN200 
     FM221300 03013KT P6SM SCT090 
     FM221700 03008KT P6SM BKN080
       
TAF KCOF 211800Z 2118/2224 05010G15KT 9999 SCT025 SCT250 QNH2994INS 
     BECMG 2123/2124 06009KT 9999 FEW020 SCT250 QNH2989INS 
     BECMG 2208/2209 06005KT 9999 VCSH BKN020 BKN250 QNH2991INS 
     BECMG 2212/2213 06010KT 9000 -SHRA BKN020 OVC040 QNH2993INS 
     BECMG 2215/2216 07012G18KT 9999 NSW SCT025 BKN200 QNH2987INS TX31/2118Z TN25/2208Z FCST BY USAF WX MET TECH
       
KCON 212332Z 2200/2224 01008KT P6SM OVC250 WS015/05030KT 
     FM221200 02010G16KT P6SM SCT035 SCT250
       
KCOS 212320Z 2200/2224 18015G25KT P6SM SKC 
     FM220100 20012KT P6SM SKC 
     FM220600 10007KT P6SM SKC 
     FM221500 17009KT P6SM SKC 
     FM221800 19025G37KT P6SM SCT250 
     FM222200 19018G30KT P6SM FEW070 SCT250
       
KCOU 212320Z 2200/2224 15006KT P6SM SKC
       
KCPS 212320Z 2200/2224 14010KT P6SM BKN250 
     FM220100 16004KT P6SM SKC
       
KCRE 212336Z 2200/2224 04003KT P6SM VCTS FEW025CB SCT040 BKN080 
     FM220200 03002KT P6SM SCT120 BKN250 
     TEMPO 2208/2212 00000KT 2SM BR SCT009 
     FM221300 06004KT P6SM SCT045 
     FM221800 13009KT P6SM SKC
       
KCRG 212340Z 2200/2224 09003KT P6SM FEW040 BKN250 
     FM221300 06007KT P6SM SCT020 BKN200 
     FM221600 06011KT P6SM VCSH FEW020 BKN030 BKN070 
     FM222000 07013G19KT P6SM BKN045
       
KCRP 212335Z 2200/2224 14015G20KT P6SM SCT030 BKN250 
     FM220600 14006KT P6SM FEW015 SCT250 
     FM221400 16012KT P6SM VCSH BKN025 BKN050 
     FM221900 13015G21KT P6SM SCT035 BKN050
       
KCRQ 212322Z 2200/2224 25011G18KT P6SM VCSH SCT022 BKN035 
     FM220230 21007KT P6SM SCT022 BKN035 
     FM220500 VRB05KT P6SM BKN022 
     FM221500 VRB05KT P6SM SCT025 BKN035 
     FM221900 25011G18KT P6SM SCT025
       
KCRW 212339Z 2200/2224 VRB03KT P6SM SCT050 SCT100 
     FM220700 00000KT 5SM BR FEW001 
     FM220830 00000KT 1/4SM FG VV001 
     FM221200 00000KT 2SM BR BKN002 
     FM221300 00000KT P6SM FEW050
       
KCSG 212337Z 2200/2224 20006KT P6SM VCSH BKN050 
     FM220200 VRB03KT P6SM FEW150 
     FM221000 00000KT 4SM BR SKC 
     FM221400 10004KT P6SM FEW050 
     FM221800 09004KT P6SM VCSH SCT045
       
KCSM 212333Z 2200/2224 17018G26KT P6SM SCT100
       
KCSV 212320Z 2200/2224 05005KT P6SM SKC 
     FM220800 00000KT 4SM BR SKC 
     FM221300 07002KT P6SM SKC
       
KCTB 212344Z 2200/2224 01009KT P6SM -SHRA OVC035 
     FM221500 36009KT P6SM SCT009 OVC015 
     PROB30 2215/2220 4SM -RASN OVC006 
     FM222000 01010KT P6SM SCT015 OVC020 
     PROB30 2220/2224 4SM -RASN OVC007
       
KCUB 212327Z 2200/2224 VRB03KT P6SM VCSH SCT060 
     FM220300 00000KT P6SM SCT100 
     TEMPO 2209/2211 5SM BR SKC 
     FM221300 VRB03KT P6SM SKC 
     FM221600 VRB04KT P6SM SCT050
       
KCVG 212339Z 2200/2306 VRB05KT P6SM SCT050 BKN150 
     FM220200 VRB03KT P6SM SKC 
     TEMPO 2209/2213 5SM BR 
     FM221600 VRB05KT P6SM SCT040 
     FM230000 10003KT P6SM SKC
       
TAF AMD KCVS 212251Z 2122/2224 19012G18KT 9999 FEW110 QNH2985INS 
     TEMPO 2122/2223 20015G25KT 
     BECMG 2200/2201 18009KT 9999 FEW080 QNH2984INS 
     BECMG 2203/2204 17012G18KT 9999 SCT080 QNH2990INS 
     BECMG 2221/2222 18015G27KT 8000 BLDU VCTS BKN060CB QNH2987INS 
     TEMPO 2223/2224 VRB40G50KT 4800 TSRAGS OVC050CB TX33/2122Z TN14/2212Z
       
KCWA 212337Z 2200/2224 15007KT P6SM BKN100 
     FM220600 16004KT 4SM BR VCTS BKN110CB WS020/22035KT 
     FM221100 18005KT 3SM BR SCT150 
     FM221400 20011G17KT P6SM SCT200 
     FM222300 19009KT P6SM FEW200 AMD LTD TO CLD VIS AND WIND 2203/2211
       
KCXO 212336Z 2200/2224 13006KT P6SM FEW016 
     FM220200 13004KT P6SM BKN250 
     FM220900 VRB02KT 4SM BR BKN015 
     TEMPO 2211/2213 2SM BR BKN007 
     FM221500 15007KT P6SM SCT015 BKN035 
     FM221900 14008KT P6SM VCSH BKN035
       
KCXP 220043Z 2201/2224 27008KT P6SM VCSH SCT040 BKN090 
     FM220400 VRB04KT P6SM FEW050 BKN100 
     FM221700 05006KT P6SM VCSH SCT060 BKN120
       
KCYS 212330Z 2200/2224 18010G17KT P6SM SKC 
     FM220200 29007KT P6SM FEW120 
     FM221800 16010G20KT P6SM BKN100